Kirwin, Kansas
Current Conditions -  °F | °C
As of 4:53 PM on Wednesday 26 Nov 2014 (Local Time) from KHLC Reporting Station
Overcast Overcast  
Wind Chill: -1°   Ceiling: 8000
Heat Index:   Visibility: 10mi
Dew Point: -8°   Wind: 14mph
Humidity: 44%   Direction: 330°NNW
Pressure: 30.34"   Gusts: NA
Location:  39.67°N, 99.12°W
Report Text: KHLC 262253Z AUTO 33012KT 10SM OVC080 03/M08 A3034 RMK AO2 SLP287 T00331078
Loading
Personal Weather Stations






























Interactive Weather Map New forecast layout! Learn more

10-Day Weather Forecast

Advertisements
Track Severe Weather on mobile